Time;durP1;ratioP1;P1;durP2;ratioP2;P2;SDS_P1;SDS_P2;PMS_P1;PMS_P2;Temp;Humidity;BMP_temperature;BMP_pressure;BME280_temperature;BME280_humidity;BME280_pressure;Samples;Min_cycle;Max_cycle;Signal;HPM_P1;HPM_P2
2021/09/07 00:00:43;;;;;;;34.70;21.17;;;9.10;74.00;;;;;;5036115;28;20029;-77
2021/09/07 00:03:08;;;;;;;40.38;22.73;;;9.10;74.00;;;;;;5036229;28;20033;-73
2021/09/07 00:05:34;;;;;;;35.60;20.83;;;9.10;74.20;;;;;;5037773;28;20381;-76
2021/09/07 00:08:00;;;;;;;32.33;20.33;;;9.10;74.30;;;;;;5038254;28;20057;-77
2021/09/07 00:10:25;;;;;;;35.97;21.13;;;9.00;74.40;;;;;;5038657;28;20029;-77
2021/09/07 00:12:51;;;;;;;34.38;21.20;;;9.00;74.40;;;;;;5037065;28;20021;-76
2021/09/07 00:15:18;;;;;;;36.47;20.85;;;9.00;74.60;;;;;;5035954;28;20025;-77
2021/09/07 00:17:44;;;;;;;37.22;20.77;;;8.90;74.80;;;;;;5032862;28;20044;-77
2021/09/07 00:20:11;;;;;;;31.75;19.92;;;8.90;75.00;;;;;;5034392;28;20022;-77
2021/09/07 00:22:37;;;;;;;30.65;19.90;;;8.90;75.10;;;;;;5034622;28;20108;-77
2021/09/07 00:25:05;;;;;;;32.05;19.27;;;8.90;75.10;;;;;;5032355;28;20025;-77
2021/09/07 00:27:31;;;;;;;31.00;18.38;;;8.90;75.10;;;;;;5033516;28;20106;-76
2021/09/07 00:29:58;;;;;;;31.13;18.73;;;8.90;75.00;;;;;;5034537;28;20029;-77
2021/09/07 00:32:23;;;;;;;33.97;20.20;;;8.90;75.00;;;;;;5034471;28;20390;-77
2021/09/07 00:34:49;;;;;;;32.05;20.35;;;8.90;75.00;;;;;;5034120;28;20029;-77
2021/09/07 00:37:15;;;;;;;29.88;19.42;;;8.80;75.00;;;;;;5033021;28;20472;-77
2021/09/07 00:39:40;;;;;;;32.42;20.15;;;8.80;75.10;;;;;;5034428;28;20380;-77
2021/09/07 00:42:06;;;;;;;31.27;19.08;;;8.80;75.20;;;;;;5034504;28;20407;-84
2021/09/07 00:44:32;;;;;;;30.20;18.63;;;8.80;75.10;;;;;;5050254;28;20110;-76
2021/09/07 00:47:00;;;;;;;28.52;17.48;;;8.80;75.10;;;;;;5054194;28;20025;-77
2021/09/07 00:49:28;;;;;;;32.13;18.50;;;8.80;75.20;;;;;;5052572;28;20036;-77
2021/09/07 00:51:55;;;;;;;29.17;17.95;;;8.80;75.10;;;;;;5053316;28;20403;-77
2021/09/07 00:54:24;;;;;;;29.88;18.42;;;8.80;75.20;;;;;;5052965;28;20025;-77
2021/09/07 00:56:52;;;;;;;30.17;17.92;;;8.70;75.20;;;;;;5052511;28;20035;-77
2021/09/07 00:59:20;;;;;;;29.42;18.08;;;8.70;75.20;;;;;;5052524;28;20029;-78
2021/09/07 01:01:46;;;;;;;29.75;18.55;;;8.70;75.20;;;;;;5052418;28;20403;-77
2021/09/07 01:04:12;;;;;;;28.30;16.42;;;8.70;75.20;;;;;;5052420;28;20147;-76
2021/09/07 01:06:37;;;;;;;30.23;17.90;;;8.70;75.30;;;;;;5052625;28;20064;-76
2021/09/07 01:09:05;;;;;;;28.88;18.02;;;8.70;75.40;;;;;;5042930;28;20029;-77
2021/09/07 01:11:31;;;;;;;28.02;17.77;;;8.70;75.40;;;;;;5032694;28;20475;-77
2021/09/07 01:13:56;;;;;;;29.05;16.88;;;8.60;76.00;;;;;;5032449;28;20040;-77
2021/09/07 01:16:23;;;;;;;24.55;17.10;;;8.60;75.30;;;;;;5032158;28;20060;-77
2021/09/07 01:18:49;;;;;;;27.98;17.48;;;8.70;75.30;;;;;;5032582;28;20120;-77
2021/09/07 01:21:16;;;;;;;27.15;16.70;;;8.70;75.30;;;;;;5032465;28;20175;-77
2021/09/07 01:23:45;;;;;;;26.17;16.65;;;8.70;75.30;;;;;;5032730;28;20037;-77
2021/09/07 01:26:16;;;;;;;29.48;17.52;;;8.70;75.30;;;;;;5033929;28;20354;-77
2021/09/07 01:28:43;;;;;;;25.75;16.75;;;8.70;75.20;;;;;;5032090;28;20029;-77
2021/09/07 01:31:10;;;;;;;27.92;15.07;;;8.60;75.20;;;;;;5033706;28;20034;-77
2021/09/07 01:33:37;;;;;;;24.50;15.57;;;8.60;75.10;;;;;;5034730;28;20025;-76
2021/09/07 01:36:03;;;;;;;27.23;15.85;;;8.60;75.10;;;;;;5053965;28;20129;-76
2021/09/07 01:38:30;;;;;;;26.65;15.48;;;8.60;75.00;;;;;;5056474;28;20131;-77
2021/09/07 01:40:57;;;;;;;30.00;15.70;;;8.60;75.00;;;;;;5056396;28;20060;-76
2021/09/07 01:43:23;;;;;;;25.05;15.55;;;8.60;75.00;;;;;;5057762;28;20025;-77
2021/09/07 01:45:51;;;;;;;26.10;17.20;;;8.60;75.10;;;;;;5058431;28;20021;-77
2021/09/07 01:48:23;;;;;;;27.05;15.52;;;8.60;75.20;;;;;;5059843;28;20029;-76
2021/09/07 01:50:49;;;;;;;25.30;15.10;;;8.60;75.40;;;;;;5060175;28;20029;-75
2021/09/07 01:53:15;;;;;;;25.70;15.60;;;8.60;75.40;;;;;;5060494;28;20440;-75
2021/09/07 01:55:41;;;;;;;27.10;15.00;;;8.60;75.40;;;;;;5060038;28;20053;-77
2021/09/07 01:58:07;;;;;;;26.60;15.15;;;8.60;75.40;;;;;;5057221;28;20068;-76
2021/09/07 02:00:33;;;;;;;30.15;14.63;;;8.60;75.40;;;;;;5038799;28;20021;-76
2021/09/07 02:02:59;;;;;;;27.10;15.13;;;8.60;75.50;;;;;;5037098;28;20078;-76
2021/09/07 02:05:25;;;;;;;32.80;15.25;;;8.60;75.50;;;;;;5036891;28;20049;-77
2021/09/07 02:07:51;;;;;;;27.83;15.27;;;8.70;75.50;;;;;;5036162;28;20026;-77
2021/09/07 02:10:17;;;;;;;27.38;15.07;;;8.70;75.40;;;;;;5035915;28;20037;-78
2021/09/07 02:12:43;;;;;;;25.08;14.43;;;8.70;75.30;;;;;;5035936;28;20033;-77
2021/09/07 02:15:09;;;;;;;21.55;13.98;;;8.80;75.20;;;;;;5035859;28;20029;-74
2021/09/07 02:17:34;;;;;;;22.30;14.00;;;8.80;75.00;;;;;;5035652;28;20034;-77
2021/09/07 02:20:01;;;;;;;32.78;15.25;;;8.90;74.90;;;;;;5036803;28;20579;-77
2021/09/07 02:22:27;;;;;;;24.80;13.73;;;8.90;74.60;;;;;;5035698;28;20072;-80
2021/09/07 02:24:53;;;;;;;24.27;13.80;;;9.00;74.50;;;;;;5036345;28;20029;-76
2021/09/07 02:27:19;;;;;;;28.95;14.43;;;9.00;74.30;;;;;;5035540;28;20041;-77
2021/09/07 02:29:45;;;;;;;32.70;14.57;;;9.10;74.20;;;;;;5035568;28;20030;-77
2021/09/07 02:32:11;;;;;;;32.17;14.32;;;9.10;73.90;;;;;;5035551;28;20032;-76
2021/09/07 02:34:37;;;;;;;29.98;14.57;;;9.20;73.90;;;;;;5035779;28;20025;-77
2021/09/07 02:37:03;;;;;;;29.33;14.65;;;9.20;73.80;;;;;;5036394;28;20445;-77
2021/09/07 02:39:29;;;;;;;28.42;14.50;;;9.20;73.60;;;;;;5039331;28;20028;-78
2021/09/07 02:41:55;;;;;;;26.17;13.35;;;9.20;73.70;;;;;;5044695;28;20033;-69
2021/09/07 02:44:21;;;;;;;25.27;12.98;;;9.20;73.70;;;;;;5051912;28;20041;-78
2021/09/07 02:46:47;;;;;;;21.05;12.52;;;9.20;73.70;;;;;;5038098;28;20041;-87
2021/09/07 02:49:12;;;;;;;24.17;13.55;;;9.30;73.70;;;;;;5054146;28;20063;-87
2021/09/07 02:51:38;;;;;;;23.75;13.57;;;9.30;73.70;;;;;;5076139;28;20106;-91
2021/09/07 02:54:04;;;;;;;22.80;13.27;;;9.30;73.70;;;;;;5075590;28;20025;-85
2021/09/07 02:56:31;;;;;;;21.90;12.32;;;9.30;73.80;;;;;;5076246;28;20036;-87
2021/09/07 02:58:56;;;;;;;24.20;13.30;;;9.30;73.80;;;;;;5075145;28;20039;-87
2021/09/07 03:01:22;;;;;;;24.30;13.38;;;9.40;73.80;;;;;;5076288;28;20458;-87
2021/09/07 03:03:48;;;;;;;22.55;12.90;;;9.40;73.70;;;;;;5075130;28;20029;-86
2021/09/07 03:06:14;;;;;;;21.02;12.38;;;9.50;73.60;;;;;;5074435;28;20068;-87
2021/09/07 03:08:39;;;;;;;23.90;13.15;;;9.50;73.50;;;;;;5074636;28;20039;-86
2021/09/07 03:11:05;;;;;;;20.40;13.50;;;9.50;73.50;;;;;;5059259;28;20033;-88
2021/09/07 03:13:31;;;;;;;20.88;13.25;;;9.40;73.40;;;;;;5037258;28;20032;-88
2021/09/07 03:15:57;;;;;;;20.50;12.85;;;9.40;73.40;;;;;;5035376;28;20122;-88
2021/09/07 03:18:23;;;;;;;20.60;12.73;;;9.30;73.20;;;;;;5035333;28;20124;-87
2021/09/07 03:20:49;;;;;;;20.45;12.50;;;9.30;73.20;;;;;;5038010;28;20025;-85
2021/09/07 03:23:15;;;;;;;19.77;12.77;;;9.20;73.20;;;;;;5058562;28;20073;-85
2021/09/07 03:25:41;;;;;;;19.00;11.35;;;9.10;73.20;;;;;;5057803;28;20116;-87
2021/09/07 03:28:07;;;;;;;21.10;13.02;;;9.10;73.30;;;;;;5054190;28;20037;-83
2021/09/07 03:30:33;;;;;;;17.77;11.25;;;9.10;73.40;;;;;;5047580;28;20456;-87
2021/09/07 03:33:00;;;;;;;22.00;12.05;;;9.00;73.60;;;;;;5038565;28;20029;-88
2021/09/07 03:35:26;;;;;;;20.67;11.95;;;9.00;73.70;;;;;;5042773;28;20022;-89
2021/09/07 03:37:52;;;;;;;19.65;13.40;;;8.90;73.80;;;;;;5039641;28;20041;-89
2021/09/07 03:40:17;;;;;;;24.13;16.88;;;8.90;73.70;;;;;;5039892;28;20032;-87
2021/09/07 03:42:43;;;;;;;23.77;17.30;;;8.90;73.70;;;;;;5034169;28;20480;-86
2021/09/07 03:45:12;;;;;;;23.55;15.35;;;8.90;73.70;;;;;;5034387;28;20025;-86
2021/09/07 03:47:47;;;;;;;21.27;14.10;;;8.80;73.80;;;;;;5033948;28;20129;-86
2021/09/07 03:50:14;;;;;;;17.80;12.88;;;8.80;74.10;;;;;;5034095;28;20116;-86
2021/09/07 03:52:40;;;;;;;19.92;12.85;;;8.80;74.10;;;;;;5033951;28;20033;-86
2021/09/07 03:55:07;;;;;;;20.00;11.57;;;8.80;74.20;;;;;;5033914;28;20025;-82
2021/09/07 03:57:32;;;;;;;20.17;11.23;;;8.70;74.20;;;;;;5035353;28;20040;-87
2021/09/07 03:59:58;;;;;;;17.75;10.98;;;8.70;74.20;;;;;;5035568;28;20025;-88
2021/09/07 04:02:25;;;;;;;18.20;11.65;;;8.70;74.20;;;;;;5050028;28;20033;-90
2021/09/07 04:04:51;;;;;;;21.30;11.40;;;8.70;74.20;;;;;;5054315;28;20053;-88
2021/09/07 04:07:17;;;;;;;19.30;11.52;;;8.60;74.20;;;;;;5055073;28;20398;-89
2021/09/07 04:09:43;;;;;;;19.33;11.20;;;8.70;74.90;;;;;;5054407;28;20036;-89
2021/09/07 04:12:09;;;;;;;21.13;12.32;;;9.20;76.40;;;;;;5056496;28;20032;-88
2021/09/07 04:14:35;;;;;;;21.45;11.82;;;9.90;74.90;;;;;;5055765;28;20021;-87
2021/09/07 04:17:02;;;;;;;22.13;12.35;;;10.60;73.40;;;;;;5056416;28;20036;-87
2021/09/07 04:19:28;;;;;;;25.10;12.63;;;11.30;71.50;;;;;;5054518;28;20118;-88
2021/09/07 04:21:53;;;;;;;18.17;11.82;;;11.90;69.80;;;;;;5053980;28;20025;-91
2021/09/07 04:24:19;;;;;;;18.83;12.05;;;12.50;68.00;;;;;;5053567;28;20036;-85
2021/09/07 04:26:45;;;;;;;18.85;11.30;;;13.10;66.40;;;;;;5052433;28;20059;-89
2021/09/07 04:29:10;;;;;;;20.60;11.93;;;13.60;64.80;;;;;;5053726;28;20031;-90
2021/09/07 04:31:36;;;;;;;18.77;11.25;;;14.20;63.50;;;;;;5053480;28;20052;-90
2021/09/07 04:34:03;;;;;;;18.50;11.05;;;14.70;62.10;;;;;;5053629;28;20029;-88
2021/09/07 04:36:28;;;;;;;18.38;10.60;;;15.10;60.90;;;;;;5053154;28;20028;-88
2021/09/07 04:38:54;;;;;;;22.63;11.38;;;15.70;59.60;;;;;;5053538;28;20029;-90
2021/09/07 04:41:20;;;;;;;20.70;11.52;;;16.20;58.40;;;;;;5053267;28;20056;-90
2021/09/07 04:43:46;;;;;;;17.98;11.18;;;16.40;57.50;;;;;;5053785;28;20336;-88
2021/09/07 04:46:12;;;;;;;21.92;12.40;;;16.70;56.70;;;;;;5053366;28;20036;-89
2021/09/07 04:48:38;;;;;;;19.73;10.38;;;17.00;56.00;;;;;;5050647;28;20030;-87
2021/09/07 04:51:03;;;;;;;17.85;10.15;;;17.30;54.90;;;;;;5041311;28;20029;-88
2021/09/07 04:53:29;;;;;;;19.50;10.65;;;17.50;54.40;;;;;;5032531;28;20111;-86
2021/09/07 04:55:55;;;;;;;32.63;13.30;;;17.50;53.80;;;;;;5032915;28;20021;-85
2021/09/07 04:58:22;;;;;;;26.85;11.43;;;17.70;53.40;;;;;;5033951;28;20025;-86
2021/09/07 05:00:48;;;;;;;23.67;12.27;;;17.80;52.90;;;;;;5032892;28;20026;-84
2021/09/07 05:03:13;;;;;;;24.90;11.32;;;18.10;52.60;;;;;;5034215;28;20474;-87
2021/09/07 05:05:41;;;;;;;20.10;11.02;;;18.30;52.20;;;;;;5035919;28;20057;-74
2021/09/07 05:08:07;;;;;;;25.25;11.48;;;18.60;51.60;;;;;;5035358;28;20033;-75
2021/09/07 05:10:32;;;;;;;20.98;9.70;;;18.90;51.00;;;;;;5067139;28;20025;-77
2021/09/07 05:12:58;;;;;;;21.05;11.02;;;19.20;50.50;;;;;;5033531;28;20025;-71
2021/09/07 05:15:24;;;;;;;23.75;10.93;;;19.50;50.00;;;;;;5033512;28;20060;-71
2021/09/07 05:17:50;;;;;;;20.88;11.18;;;19.80;49.50;;;;;;5057907;28;20044;-75
2021/09/07 05:20:16;;;;;;;21.33;11.68;;;20.00;48.80;;;;;;5053858;28;20391;-71
2021/09/07 05:22:42;;;;;;;20.38;10.55;;;20.30;48.20;;;;;;5052433;28;20392;-70
2021/09/07 05:25:08;;;;;;;20.17;10.90;;;20.60;47.70;;;;;;5053515;28;20032;-70
2021/09/07 05:27:38;;;;;;;25.50;12.25;;;20.80;47.10;;;;;;5053285;28;20047;-71
2021/09/07 05:30:09;;;;;;;22.77;10.95;;;21.10;46.60;;;;;;5052363;28;20490;-70
2021/09/07 05:32:35;;;;;;;21.38;10.43;;;21.40;46.10;;;;;;5049790;28;20037;-71
2021/09/07 05:35:01;;;;;;;20.77;11.07;;;21.60;45.80;;;;;;5033332;28;20435;-71
2021/09/07 05:37:27;;;;;;;19.38;10.98;;;21.70;45.50;;;;;;5033441;28;20125;-71
2021/09/07 05:39:52;;;;;;;19.90;9.55;;;21.80;45.20;;;;;;5035606;28;20353;-73
2021/09/07 05:42:18;;;;;;;22.67;10.15;;;21.80;45.00;;;;;;5041727;28;20056;-71
2021/09/07 05:44:44;;;;;;;19.85;10.38;;;22.10;44.90;;;;;;5042346;28;20456;-71
2021/09/07 05:47:10;;;;;;;19.42;10.82;;;22.40;44.60;;;;;;5033105;28;20029;-70
2021/09/07 05:49:36;;;;;;;20.45;10.50;;;22.70;44.20;;;;;;5031568;28;20025;-71
2021/09/07 05:52:01;;;;;;;16.35;10.20;;;22.90;43.80;;;;;;5035019;28;20025;-72
2021/09/07 05:54:27;;;;;;;26.55;11.35;;;23.20;42.90;;;;;;5031967;28;20036;-72
2021/09/07 05:56:57;;;;;;;25.65;12.20;;;23.40;42.60;;;;;;5050612;28;20108;-72
2021/09/07 05:59:23;;;;;;;22.05;11.45;;;23.50;42.20;;;;;;5051036;28;20033;-72
2021/09/07 06:01:48;;;;;;;22.95;13.10;;;23.80;41.90;;;;;;5044888;28;20548;-72
2021/09/07 06:04:14;;;;;;;21.92;12.00;;;24.00;41.20;;;;;;5049110;28;20053;-72
2021/09/07 06:06:39;;;;;;;23.08;12.02;;;24.30;40.80;;;;;;5050749;28;20124;-71
2021/09/07 06:09:05;;;;;;;19.60;10.07;;;24.40;40.50;;;;;;5052539;28;20048;-74
2021/09/07 06:11:31;;;;;;;22.70;12.43;;;24.70;40.30;;;;;;5050569;28;20025;-71
2021/09/07 06:13:57;;;;;;;22.98;13.77;;;24.90;39.70;;;;;;5045845;28;20033;-70
2021/09/07 06:16:23;;;;;;;20.58;12.35;;;25.10;39.40;;;;;;5037123;28;20463;-71
2021/09/07 06:18:49;;;;;;;23.45;11.73;;;25.30;38.90;;;;;;5047542;28;20475;-70
2021/09/07 06:21:15;;;;;;;20.50;10.88;;;25.50;38.60;;;;;;5038335;28;20026;-70
2021/09/07 06:23:40;;;;;;;14.18;9.13;;;25.70;38.30;;;;;;5036642;28;20049;-71
2021/09/07 06:26:06;;;;;;;19.65;8.38;;;26.00;37.60;;;;;;5036854;28;20033;-71
2021/09/07 06:28:32;;;;;;;14.73;7.20;;;26.00;37.30;;;;;;5041065;28;20051;-70
2021/09/07 06:30:58;;;;;;;13.85;6.90;;;26.10;36.90;;;;;;5054478;28;20033;-70
2021/09/07 06:33:23;;;;;;;14.52;7.80;;;26.30;36.70;;;;;;5052266;28;20048;-71
2021/09/07 06:35:49;;;;;;;12.35;6.63;;;26.30;36.90;;;;;;5036439;28;20030;-70
2021/09/07 06:38:15;;;;;;;12.32;6.22;;;26.40;36.90;;;;;;5038404;28;20033;-70
2021/09/07 06:40:41;;;;;;;11.35;5.70;;;26.50;36.00;;;;;;5052805;28;20021;-69
2021/09/07 06:43:07;;;;;;;8.18;5.28;;;26.30;35.90;;;;;;5038458;28;20056;-71
2021/09/07 06:45:33;;;;;;;10.45;5.80;;;26.40;35.70;;;;;;5047846;28;20468;-71
2021/09/07 06:47:58;;;;;;;11.05;6.00;;;26.40;35.50;;;;;;5042813;28;20025;-72
2021/09/07 06:50:24;;;;;;;13.73;6.10;;;26.40;35.40;;;;;;5042466;28;20503;-71
2021/09/07 06:52:50;;;;;;;18.75;10.40;;;26.50;35.50;;;;;;5039462;28;20026;-71
2021/09/07 06:55:15;;;;;;;23.55;11.82;;;26.90;35.20;;;;;;5041890;28;20149;-72
2021/09/07 06:57:41;;;;;;;20.45;12.05;;;27.10;35.10;;;;;;5035999;28;20029;-72
2021/09/07 07:00:07;;;;;;;23.38;10.20;;;27.30;34.80;;;;;;5053078;28;20032;-72
2021/09/07 07:02:40;;;;;;;14.40;7.82;;;27.50;34.90;;;;;;5039789;28;20025;-72
2021/09/07 07:05:07;;;;;;;13.05;6.85;;;27.70;33.90;;;;;;5037589;28;20052;-71
2021/09/07 07:07:33;;;;;;;10.85;5.93;;;27.70;34.20;;;;;;5042190;28;20386;-72
2021/09/07 07:10:00;;;;;;;10.63;6.15;;;27.80;34.50;;;;;;5048436;28;20064;-71
2021/09/07 07:12:26;;;;;;;9.07;4.82;;;28.10;34.40;;;;;;5068006;28;20016;-72
2021/09/07 07:14:51;;;;;;;8.45;4.53;;;28.50;33.90;;;;;;5061297;28;20447;-73
2021/09/07 07:17:17;;;;;;;9.13;5.38;;;28.90;32.70;;;;;;5055969;28;20033;-71
2021/09/07 07:19:43;;;;;;;9.52;5.00;;;29.10;32.40;;;;;;5056284;28;20028;-71
2021/09/07 07:22:08;;;;;;;7.93;4.60;;;29.00;32.70;;;;;;5067514;28;20028;-71
2021/09/07 07:24:34;;;;;;;8.85;4.57;;;29.00;32.60;;;;;;5075687;28;20024;-72
2021/09/07 07:27:01;;;;;;;10.45;4.65;;;29.10;32.80;;;;;;5061137;28;20032;-71
2021/09/07 07:29:27;;;;;;;9.73;4.97;;;28.90;32.70;;;;;;5054752;28;20490;-71
2021/09/07 07:31:52;;;;;;;11.60;4.90;;;28.80;32.70;;;;;;5048732;28;20018;-76
2021/09/07 07:34:18;;;;;;;8.88;4.63;;;28.70;32.40;;;;;;5037811;28;20167;-73
2021/09/07 07:36:44;;;;;;;11.07;4.78;;;28.40;32.20;;;;;;5039872;28;20029;-73
2021/09/07 07:39:09;;;;;;;7.57;3.92;;;28.30;32.10;;;;;;5047932;28;20175;-72
2021/09/07 07:41:35;;;;;;;5.28;3.20;;;28.30;32.10;;;;;;5046137;28;20087;-72
2021/09/07 07:44:01;;;;;;;8.63;3.08;;;28.30;32.20;;;;;;5048081;28;20040;-71
2021/09/07 07:46:26;;;;;;;8.68;4.72;;;28.50;32.30;;;;;;5047895;28;20030;-72
2021/09/07 07:48:53;;;;;;;6.85;3.35;;;28.80;32.20;;;;;;5050280;28;20051;-70
2021/09/07 07:51:19;;;;;;;8.35;3.38;;;29.00;31.60;;;;;;5038329;28;20040;-72
2021/09/07 07:53:45;;;;;;;7.85;3.13;;;29.20;31.70;;;;;;5034707;28;20024;-72
2021/09/07 07:56:11;;;;;;;7.68;2.95;;;29.50;31.90;;;;;;5039580;28;20024;-71
2021/09/07 07:58:36;;;;;;;4.28;2.42;;;29.90;31.70;;;;;;5046642;28;20041;-70
2021/09/07 08:01:03;;;;;;;6.30;2.60;;;30.10;31.30;;;;;;5046335;28;20036;-72
2021/09/07 08:03:29;;;;;;;7.38;3.22;;;30.30;31.00;;;;;;5036979;28;20041;-72
2021/09/07 08:05:54;;;;;;;5.90;2.50;;;30.30;30.90;;;;;;5037997;28;20068;-73
2021/09/07 08:08:20;;;;;;;5.20;2.83;;;30.40;30.70;;;;;;5043702;28;20052;-70
2021/09/07 08:10:46;;;;;;;28.45;6.20;;;30.30;30.00;;;;;;5041360;28;20470;-71
2021/09/07 08:13:12;;;;;;;18.05;5.28;;;30.30;29.90;;;;;;5042120;28;20021;-69
2021/09/07 08:15:38;;;;;;;22.45;5.25;;;30.20;29.70;;;;;;5033847;28;20121;-72
2021/09/07 08:18:03;;;;;;;24.58;6.70;;;30.00;30.00;;;;;;5041207;28;20091;-71
2021/09/07 08:20:33;;;;;;;38.88;8.00;;;30.30;30.00;;;;;;5039687;28;20027;-72
2021/09/07 08:23:00;;;;;;;31.48;6.88;;;30.20;29.80;;;;;;5042350;28;20025;-73
2021/09/07 08:25:26;;;;;;;10.02;3.38;;;30.10;29.60;;;;;;5043908;28;20030;-72
2021/09/07 08:27:52;;;;;;;9.05;3.28;;;30.30;29.30;;;;;;5038682;28;20062;-70
2021/09/07 08:30:18;;;;;;;7.65;3.05;;;30.50;29.70;;;;;;5039642;28;20025;-72
2021/09/07 08:32:44;;;;;;;8.45;3.28;;;30.70;29.40;;;;;;5047762;28;20096;-74
2021/09/07 08:35:11;;;;;;;9.25;2.90;;;30.40;29.30;;;;;;5047684;28;20046;-72
2021/09/07 08:37:37;;;;;;;4.50;2.63;;;30.30;29.40;;;;;;5042284;28;20037;-72
2021/09/07 08:40:05;;;;;;;5.60;2.40;;;30.50;29.70;;;;;;5041967;28;20030;-71
2021/09/07 08:42:32;;;;;;;12.68;5.88;;;30.80;29.70;;;;;;5037551;28;20357;-70
2021/09/07 08:44:58;;;;;;;10.40;5.75;;;30.70;30.40;;;;;;5038772;28;20080;-72
2021/09/07 08:47:24;;;;;;;16.17;5.75;;;30.40;31.50;;;;;;5033874;28;20113;-72
2021/09/07 08:49:50;;;;;;;12.25;5.45;;;30.50;31.90;;;;;;5034622;28;20357;-72
2021/09/07 08:52:18;;;;;;;17.35;5.45;;;30.60;31.70;;;;;;5043330;28;20112;-68
2021/09/07 08:54:45;;;;;;;25.17;7.72;;;30.70;32.00;;;;;;5046550;28;20035;-70
2021/09/07 08:57:11;;;;;;;17.15;8.13;;;30.90;31.00;;;;;;5039121;28;20045;-71
2021/09/07 08:59:37;;;;;;;16.10;5.88;;;31.00;31.80;;;;;;5038886;28;20095;-71
2021/09/07 09:02:17;;;;;;;6.55;2.33;;;31.30;31.30;;;;;;5038635;28;20025;-72
2021/09/07 09:04:48;;;;;;;12.70;6.10;;;31.20;29.80;;;;;;5045150;28;20049;-77
2021/09/07 09:07:33;;;;;;;24.77;9.55;;;31.10;29.10;;;;;;5042303;28;20464;-73
2021/09/07 09:09:59;;;;;;;26.85;9.27;;;31.10;28.80;;;;;;5051898;28;20028;-74
2021/09/07 09:12:34;;;;;;;19.30;8.18;;;30.80;28.70;;;;;;5036608;28;20037;-73
2021/09/07 09:15:01;;;;;;;24.58;8.80;;;30.50;28.50;;;;;;5044388;28;20025;-72
2021/09/07 09:17:29;;;;;;;19.52;8.38;;;30.10;28.80;;;;;;5045343;28;20048;-71
2021/09/07 09:20:03;;;;;;;22.02;8.52;;;29.90;29.80;;;;;;5059679;28;20032;-72
2021/09/07 09:22:52;;;;;;;29.38;10.45;;;29.90;31.00;;;;;;5033291;28;20029;-72
2021/09/07 09:25:21;;;;;;;21.38;9.48;;;29.80;31.60;;;;;;5045441;28;20040;-71
2021/09/07 09:28:09;;;;;;;20.20;10.93;;;29.80;31.60;;;;;;5035034;28;20040;-73
2021/09/07 09:30:53;;;;;;;20.42;9.07;;;29.60;31.60;;;;;;5044261;28;20033;-72
2021/09/07 09:33:28;;;;;;;25.00;10.63;;;29.10;31.30;;;;;;5031748;28;20033;-71
2021/09/07 09:35:59;;;;;;;22.13;10.43;;;28.00;32.10;;;;;;5045926;28;20068;-73
2021/09/07 09:38:28;;;;;;;26.23;10.35;;;27.10;32.90;;;;;;5038458;28;20048;-72
2021/09/07 09:40:59;;;;;;;34.13;10.95;;;26.50;34.70;;;;;;5041453;28;20025;-72
2021/09/07 09:43:27;;;;;;;23.40;9.38;;;26.50;34.90;;;;;;5036376;28;20475;-73
2021/09/07 09:45:54;;;;;;;20.17;8.82;;;27.00;34.80;;;;;;5043032;28;20033;-73
2021/09/07 09:48:28;;;;;;;24.67;8.77;;;27.30;34.40;;;;;;5035537;28;20029;-72
2021/09/07 09:50:57;;;;;;;22.75;8.57;;;27.70;34.10;;;;;;5037815;28;20021;-73
2021/09/07 09:53:25;;;;;;;19.77;8.20;;;28.10;34.30;;;;;;5038252;28;20033;-75
2021/09/07 09:55:53;;;;;;;17.95;8.13;;;28.20;33.30;;;;;;5035652;28;20029;-74
2021/09/07 09:58:20;;;;;;;19.13;9.15;;;28.30;33.60;;;;;;5039924;28;20045;-73
2021/09/07 10:00:48;;;;;;;16.77;7.40;;;28.50;33.00;;;;;;5047329;28;20127;-74
2021/09/07 10:03:14;;;;;;;16.25;7.38;;;28.60;32.50;;;;;;5052418;28;20041;-73
2021/09/07 10:05:41;;;;;;;17.95;7.03;;;28.30;32.60;;;;;;5049212;28;20045;-73
2021/09/07 10:08:10;;;;;;;15.32;6.70;;;28.10;32.80;;;;;;5042020;28;20029;-72
2021/09/07 10:10:39;;;;;;;14.57;7.05;;;28.10;33.50;;;;;;5047705;28;20029;-71
2021/09/07 10:13:08;;;;;;;15.82;5.80;;;28.40;33.20;;;;;;5046997;28;20549;-73
2021/09/07 10:15:39;;;;;;;12.23;5.30;;;28.80;33.40;;;;;;5041050;28;20365;-72
2021/09/07 10:26:53;;;;;;;12.25;5.60;;;29.00;32.60;;;;;;5040387;28;20045;-72
2021/09/07 10:29:31;;;;;;;12.95;6.05;;;28.50;32.80;;;;;;5048931;28;20041;-72
2021/09/07 10:31:57;;;;;;;8.82;5.00;;;28.50;33.10;;;;;;5053763;28;20483;-72
2021/09/07 10:34:28;;;;;;;9.25;4.35;;;28.40;32.90;;;;;;5046217;28;20036;-73
2021/09/07 10:37:07;;;;;;;7.78;4.25;;;28.20;32.60;;;;;;5047288;28;20038;-73
2021/09/07 10:39:38;;;;;;;6.38;4.00;;;27.70;32.70;;;;;;5046844;28;20079;-71
2021/09/07 10:42:06;;;;;;;10.10;5.70;;;27.50;33.50;;;;;;5052395;28;20029;-72
2021/09/07 10:44:40;;;;;;;10.25;4.40;;;27.50;33.30;;;;;;5051605;28;20429;-70
2021/09/07 10:47:12;;;;;;;10.23;4.68;;;27.50;33.20;;;;;;5050058;28;20123;-71
2021/09/07 10:49:47;;;;;;;9.13;3.97;;;27.40;34.10;;;;;;5063731;28;20033;-70
2021/09/07 10:52:18;;;;;;;7.50;4.70;;;27.30;34.00;;;;;;5046171;28;20112;-69
2021/09/07 10:54:50;;;;;;;8.80;3.80;;;27.00;33.50;;;;;;5047923;28;20040;-70
2021/09/07 10:57:44;;;;;;;11.75;4.65;;;26.70;33.70;;;;;;5064340;28;20091;-70
2021/09/07 11:00:21;;;;;;;7.03;3.85;;;26.60;34.20;;;;;;5041729;28;20033;-68
2021/09/07 11:02:53;;;;;;;10.63;3.97;;;27.00;34.70;;;;;;5041098;28;20431;-68
2021/09/07 11:05:41;;;;;;;9.75;4.40;;;27.30;34.10;;;;;;5040164;28;20055;-69
2021/09/07 11:08:31;;;;;;;7.13;3.53;;;27.60;34.00;;;;;;5043545;28;20045;-70
2021/09/07 11:10:56;;;;;;;6.18;3.33;;;27.80;33.80;;;;;;5039118;28;20025;-68
2021/09/07 11:13:28;;;;;;;6.18;3.40;;;27.80;33.70;;;;;;5046185;28;20071;-69
2021/09/07 11:16:03;;;;;;;5.35;3.10;;;27.60;34.00;;;;;;5050017;28;20110;-69
2021/09/07 11:18:31;;;;;;;6.57;3.00;;;27.20;34.40;;;;;;5042540;28;20040;-70
2021/09/07 11:20:59;;;;;;;9.90;3.90;;;26.70;35.20;;;;;;5040339;28;20032;-69
2021/09/07 11:23:33;;;;;;;8.10;3.50;;;26.00;35.20;;;;;;5047720;28;20383;-70
2021/09/07 11:26:01;;;;;;;5.05;3.00;;;25.30;35.40;;;;;;5042478;28;20028;-70
2021/09/07 11:28:28;;;;;;;6.03;3.08;;;25.00;35.80;;;;;;5043920;28;20032;-71
2021/09/07 11:30:54;;;;;;;5.82;2.95;;;25.00;36.20;;;;;;5042060;28;20483;-68
2021/09/07 11:33:26;;;;;;;9.60;3.17;;;24.60;36.30;;;;;;5046138;28;20017;-70
2021/09/07 11:36:01;;;;;;;6.53;2.90;;;24.40;36.90;;;;;;5051006;28;20033;-71
2021/09/07 11:38:29;;;;;;;6.90;2.70;;;24.20;37.20;;;;;;5052739;28;20087;-70
2021/09/07 11:41:02;;;;;;;6.00;2.80;;;24.20;38.00;;;;;;5047343;28;20033;-71
2021/09/07 11:43:33;;;;;;;5.53;3.08;;;24.30;37.70;;;;;;5044225;28;20041;-70
2021/09/07 11:46:19;;;;;;;6.03;2.83;;;24.50;38.10;;;;;;5034816;28;20041;-72
2021/09/07 11:48:50;;;;;;;7.68;2.90;;;24.90;38.00;;;;;;5040747;28;20468;-72
2021/09/07 11:51:18;;;;;;;5.07;2.67;;;25.00;36.90;;;;;;5035237;28;20051;-70
2021/09/07 11:53:46;;;;;;;5.63;2.65;;;25.00;36.30;;;;;;5051370;28;20020;-70
2021/09/07 11:56:23;;;;;;;4.25;2.50;;;24.80;36.60;;;;;;5049456;28;20027;-71
2021/09/07 11:58:49;;;;;;;4.60;2.35;;;24.50;36.90;;;;;;5048357;28;20037;-70
2021/09/07 12:01:18;;;;;;;4.47;2.40;;;24.00;37.20;;;;;;5033302;28;20049;-71
2021/09/07 12:03:45;;;;;;;43.88;39.45;;;23.60;38.20;;;;;;5040110;28;20044;-70
2021/09/07 12:06:14;;;;;;;38.08;34.08;;;23.10;38.60;;;;;;5061803;28;20045;-70
2021/09/07 12:08:47;;;;;;;6.35;3.28;;;22.70;39.70;;;;;;5047113;28;20033;-70
2021/09/07 12:11:26;;;;;;;6.38;2.45;;;22.40;40.30;;;;;;5051611;28;20036;-70
2021/09/07 12:14:13;;;;;;;3.67;1.95;;;22.10;41.10;;;;;;5032692;28;20036;-70
2021/09/07 12:16:52;;;;;;;4.18;2.38;;;21.50;41.50;;;;;;5031896;28;20457;-70
2021/09/07 12:19:40;;;;;;;10.05;5.03;;;21.10;42.00;;;;;;5033271;28;20420;-70
2021/09/07 12:22:22;;;;;;;6.72;2.80;;;20.90;42.80;;;;;;5043402;28;20066;-70
2021/09/07 12:25:03;;;;;;;9.20;2.63;;;20.80;43.60;;;;;;5049896;28;20391;-70
2021/09/07 12:27:31;;;;;;;9.10;2.90;;;20.70;43.40;;;;;;5035421;28;20120;-70
2021/09/07 12:30:24;;;;;;;7.18;2.80;;;20.70;43.50;;;;;;5044874;28;20064;-70
2021/09/07 12:32:59;;;;;;;6.18;2.85;;;20.90;43.30;;;;;;5033742;28;20076;-71
2021/09/07 12:35:38;;;;;;;4.20;2.10;;;20.90;43.70;;;;;;5033860;28;20033;-71
2021/09/07 12:38:06;;;;;;;6.75;2.58;;;21.00;43.70;;;;;;5036180;28;20099;-71
2021/09/07 12:40:32;;;;;;;4.45;2.72;;;21.10;43.40;;;;;;5060333;28;20025;-71
2021/09/07 12:43:04;;;;;;;7.45;2.53;;;21.10;43.20;;;;;;5045603;28;20022;-70
2021/09/07 12:45:29;;;;;;;6.75;2.30;;;21.00;43.40;;;;;;5033823;28;20120;-69
2021/09/07 12:47:55;;;;;;;5.80;2.08;;;20.70;43.70;;;;;;5046378;28;20467;-70
2021/09/07 12:50:21;;;;;;;5.35;2.00;;;20.40;44.40;;;;;;5044075;28;20079;-70